Ferdinand, Idaho
Current Conditions -  °F | °C
As of 12:15 PM on Sunday 25 Jan 2015 (Local Time) from KGIC Reporting Station
Clear Clear  
Wind Chill: 51°   Ceiling: Unl
Heat Index: 51°   Visibility: 10mi
Dew Point: 41°   Wind: 9mph
Humidity: 68%   Direction: 110°ESE
Pressure: 30.31"   Gusts: NA
Location:  46.15°N, 116.39°W
Report Text: KGIC 252015Z AUTO 11008KT 10SM CLR 11/05 A3031 RMK AO1 T01060050
Loading
Personal Weather Stations






























Interactive Weather Map New forecast layout! Learn more

10-Day Weather Forecast

Advertisements
Track Severe Weather on mobile